Time;durP1;ratioP1;P1;durP2;ratioP2;P2;SDS_P1;SDS_P2;PMS_P1;PMS_P2;Temp;Humidity;BMP_temperature;BMP_pressure;BME280_temperature;BME280_humidity;BME280_pressure;Samples;Min_cycle;Max_cycle;Signal;HPM_P1;HPM_P2
2023/11/14 00:08:36;;;;;;;;;;;14.80;99.90;;;;;;21064759;28;19916;-82
2023/11/14 00:18:36;;;;;;;;;;;14.70;99.90;;;;;;21062008;28;19962;-83
2023/11/14 00:28:37;;;;;;;;;;;14.70;99.90;;;;;;21049454;28;19937;-82
2023/11/14 00:38:38;;;;;;;;;;;14.60;99.90;;;;;;21049598;28;20294;-84
2023/11/14 00:48:39;;;;;;;;;;;14.50;99.90;;;;;;21033579;28;19912;-83
2023/11/14 00:58:39;;;;;;;;;;;14.40;99.90;;;;;;21035523;28;19969;-82
2023/11/14 01:08:40;;;;;;;;;;;14.40;99.90;;;;;;21057275;28;19998;-81
2023/11/14 01:18:41;;;;;;;;;;;14.40;99.90;;;;;;21040330;28;19923;-82
2023/11/14 01:28:42;;;;;;;;;;;14.50;99.90;;;;;;21053651;28;19944;-84
2023/11/14 01:38:42;;;;;;;;;;;14.40;99.90;;;;;;21087592;28;20060;-82
2023/11/14 01:48:46;;;;;;;;;;;14.20;99.90;;;;;;21048332;28;19961;-82
2023/11/14 01:58:48;;;;;;;;;;;14.10;99.90;;;;;;21070632;28;19916;-82
2023/11/14 02:08:49;;;;;;;;;;;14.10;99.90;;;;;;21048801;28;20275;-81
2023/11/14 02:18:50;;;;;;;;;;;14.10;99.90;;;;;;21041970;28;20435;-81
2023/11/14 02:28:54;;;;;;;;;;;13.90;99.90;;;;;;21038062;28;19917;-81
2023/11/14 02:38:55;;;;;;;;;;;13.70;99.90;;;;;;21051466;28;20372;-82
2023/11/14 02:48:56;;;;;;;;;;;13.50;99.90;;;;;;21074079;28;20432;-82
2023/11/14 02:58:56;;;;;;;;;;;13.10;99.90;;;;;;21078125;28;19923;-83
2023/11/14 03:08:57;;;;;;;;;;;12.70;99.90;;;;;;21100262;28;19999;-82
2023/11/14 03:18:58;;;;;;;;;;;12.60;99.90;;;;;;21068426;28;19920;-82
2023/11/14 03:28:59;;;;;;;;;;;12.40;99.90;;;;;;21069261;28;19912;-82
2023/11/14 03:39:00;;;;;;;;;;;11.90;99.90;;;;;;21041130;28;19938;-80
2023/11/14 03:49:00;;;;;;;;;;;11.50;99.90;;;;;;21071091;28;19922;-82
2023/11/14 03:59:01;;;;;;;;;;;11.20;99.90;;;;;;21072172;28;19927;-83
2023/11/14 04:09:02;;;;;;;;;;;10.70;99.90;;;;;;21067725;28;19912;-80
2023/11/14 04:19:03;;;;;;;;;;;10.40;99.90;;;;;;21059579;28;19946;-82
2023/11/14 04:29:03;;;;;;;;;;;10.20;99.90;;;;;;21054115;28;19912;-82
2023/11/14 04:39:04;;;;;;;;;;;10.00;99.90;;;;;;21060670;28;20287;-81
2023/11/14 04:49:07;;;;;;;;;;;9.70;99.90;;;;;;21057756;28;19935;-80
2023/11/14 04:59:07;;;;;;;;;;;9.40;99.90;;;;;;21061740;28;19916;-81
2023/11/14 05:09:08;;;;;;;;;;;9.20;99.90;;;;;;21064156;28;19920;-79
2023/11/14 05:19:09;;;;;;;;;;;9.00;99.90;;;;;;21061925;28;19977;-80
2023/11/14 05:29:10;;;;;;;;;;;8.90;99.90;;;;;;21034392;28;19912;-80
2023/11/14 05:39:11;;;;;;;;;;;8.90;99.90;;;;;;21060770;28;20505;-82
2023/11/14 05:49:11;;;;;;;;;;;8.80;99.90;;;;;;21056674;28;20374;-83
2023/11/14 05:59:12;;;;;;;;;;;8.80;99.90;;;;;;21075861;28;20594;-82
2023/11/14 06:09:13;;;;;;;;;;;9.00;99.90;;;;;;21052850;28;20386;-81
2023/11/14 06:19:14;;;;;;;;;;;9.20;99.90;;;;;;21085264;28;19916;-83
2023/11/14 06:29:16;;;;;;;;;;;9.30;99.90;;;;;;21079347;28;19920;-82
2023/11/14 06:39:17;;;;;;;;;;;9.30;99.90;;;;;;21083045;28;19916;-80
2023/11/14 06:49:19;;;;;;;;;;;9.50;99.90;;;;;;21074054;28;20009;-81
2023/11/14 06:59:20;;;;;;;;;;;9.60;99.90;;;;;;21072890;28;20010;-79
2023/11/14 07:09:25;;;;;;;;;;;9.60;99.90;;;;;;21048624;28;19962;-82
2023/11/14 07:19:26;;;;;;;;;;;9.10;99.90;;;;;;21065076;28;19930;-84
2023/11/14 07:29:26;;;;;;;;;;;9.00;99.90;;;;;;21056278;28;19912;-82
2023/11/14 07:39:28;;;;;;;;;;;9.00;99.90;;;;;;21074385;28;20011;-80
2023/11/14 07:49:29;;;;;;;;;;;9.00;99.90;;;;;;21054921;28;20419;-81
2023/11/14 07:59:32;;;;;;;;;;;9.10;99.90;;;;;;21076337;28;20429;-80
2023/11/14 08:09:33;;;;;;;;;;;9.20;99.90;;;;;;21070080;28;19912;-80
2023/11/14 08:19:34;;;;;;;;;;;9.20;99.90;;;;;;21068531;28;19923;-80
2023/11/14 08:29:35;;;;;;;;;;;9.40;99.90;;;;;;21056309;28;19958;-83
2023/11/14 08:39:36;;;;;;;;;;;9.50;99.90;;;;;;21056586;28;19920;-83
2023/11/14 08:49:36;;;;;;;;;;;9.50;99.90;;;;;;21030195;28;19919;-80
2023/11/14 08:59:37;;;;;;;;;;;9.60;99.90;;;;;;21046329;28;19916;-80
2023/11/14 09:09:38;;;;;;;;;;;9.70;99.90;;;;;;21056399;28;20367;-80
2023/11/14 09:19:39;;;;;;;;;;;9.70;99.90;;;;;;21044118;28;20337;-81
2023/11/14 09:29:40;;;;;;;;;;;9.60;99.90;;;;;;21032955;28;20404;-80
2023/11/14 09:39:42;;;;;;;;;;;9.50;99.90;;;;;;21025269;28;20351;-81
2023/11/14 09:49:43;;;;;;;;;;;9.60;99.90;;;;;;21040759;28;19912;-80
2023/11/14 09:59:45;;;;;;;;;;;9.70;99.90;;;;;;21031963;28;20023;-81
2023/11/14 10:09:50;;;;;;;;;;;9.60;99.90;;;;;;21014551;28;19920;-81
2023/11/14 10:19:58;;;;;;;;;;;9.60;99.90;;;;;;21030533;28;20438;-80
2023/11/14 10:29:59;;;;;;;;;;;9.50;99.90;;;;;;21039158;28;19912;-80
2023/11/14 10:40:06;;;;;;;;;;;9.60;99.90;;;;;;21022327;28;20363;-80
2023/11/14 10:50:24;;;;;;;;;;;9.70;99.90;;;;;;21022670;28;20197;-81
2023/11/14 11:00:27;;;;;;;;;;;9.70;99.90;;;;;;21019838;28;19980;-80
2023/11/14 11:10:32;;;;;;;;;;;9.70;99.90;;;;;;21036610;28;19912;-81
2023/11/14 11:20:33;;;;;;;;;;;9.80;99.90;;;;;;21025434;28;19924;-79
2023/11/14 11:30:53;;;;;;;;;;;9.60;99.90;;;;;;21026783;28;19912;-79
2023/11/14 11:41:10;;;;;;;;;;;9.50;99.90;;;;;;21043031;28;19920;-80
2023/11/14 11:51:20;;;;;;;;;;;9.60;99.90;;;;;;21033822;28;19916;-82
2023/11/14 12:01:21;;;;;;;;;;;9.60;99.90;;;;;;21029047;28;20310;-81
2023/11/14 12:11:22;;;;;;;;;;;9.50;99.90;;;;;;21031768;28;19920;-83
2023/11/14 12:21:22;;;;;;;;;;;9.50;99.90;;;;;;21019064;28;19959;-81
2023/11/14 12:31:24;;;;;;;;;;;9.40;99.90;;;;;;21054165;28;20385;-83
2023/11/14 12:41:25;;;;;;;;;;;9.50;99.90;;;;;;21060925;28;19968;-84
2023/11/14 12:51:26;;;;;;;;;;;9.60;99.90;;;;;;21062468;28;20402;-83
2023/11/14 13:01:26;;;;;;;;;;;9.50;99.90;;;;;;21063745;28;20367;-83
2023/11/14 13:11:27;;;;;;;;;;;9.50;99.90;;;;;;20987876;28;19973;-82
2023/11/14 13:21:29;;;;;;;;;;;9.40;99.90;;;;;;21035309;28;19917;-82
2023/11/14 13:31:30;;;;;;;;;;;9.50;99.90;;;;;;21048165;28;19920;-85
2023/11/14 13:41:31;;;;;;;;;;;9.50;99.90;;;;;;21058778;28;19917;-84
2023/11/14 13:51:33;;;;;;;;;;;9.40;99.90;;;;;;21039060;28;21559;-83
2023/11/14 14:01:34;;;;;;;;;;;9.40;99.90;;;;;;21016555;28;20000;-84
2023/11/14 14:11:35;;;;;;;;;;;9.40;99.90;;;;;;21046156;28;19920;-82
2023/11/14 14:21:35;;;;;;;;;;;9.30;99.90;;;;;;21028981;28;19923;-85
2023/11/14 14:31:36;;;;;;;;;;;9.20;99.90;;;;;;21042424;28;20011;-82
2023/11/14 14:41:37;;;;;;;;;;;9.10;99.90;;;;;;21051274;28;19916;-83
2023/11/14 14:51:38;;;;;;;;;;;9.00;99.90;;;;;;21023854;28;19950;-84
2023/11/14 15:01:40;;;;;;;;;;;9.00;99.90;;;;;;21068751;28;20375;-85
2023/11/14 15:11:40;;;;;;;;;;;9.00;99.90;;;;;;21079239;28;19939;-82
2023/11/14 15:21:41;;;;;;;;;;;9.00;99.90;;;;;;21098830;28;19916;-83
2023/11/14 15:31:42;;;;;;;;;;;9.00;99.90;;;;;;21051814;28;19925;-83
2023/11/14 15:41:42;;;;;;;;;;;9.00;99.90;;;;;;21066788;28;19920;-83
2023/11/14 15:51:43;;;;;;;;;;;9.00;99.90;;;;;;21057689;28;19935;-82
2023/11/14 16:01:44;;;;;;;;;;;9.00;99.90;;;;;;21079390;28;19916;-83
2023/11/14 16:11:45;;;;;;;;;;;9.00;99.90;;;;;;21030500;28;19986;-84
2023/11/14 16:21:46;;;;;;;;;;;9.00;99.90;;;;;;21050815;28;19985;-85
2023/11/14 16:31:48;;;;;;;;;;;9.00;99.90;;;;;;21039570;28;19912;-84
2023/11/14 16:41:49;;;;;;;;;;;8.90;99.90;;;;;;21048302;28;19916;-84
2023/11/14 16:51:50;;;;;;;;;;;8.90;99.90;;;;;;21033996;28;20063;-84
2023/11/14 17:01:56;;;;;;;;;;;8.80;99.90;;;;;;21037369;28;20015;-81
2023/11/14 17:11:57;;;;;;;;;;;8.80;99.90;;;;;;21055271;28;19922;-84
2023/11/14 17:21:58;;;;;;;;;;;8.90;99.90;;;;;;21022040;28;19916;-82
2023/11/14 17:32:02;;;;;;;;;;;9.00;99.90;;;;;;21028661;28;19965;-82
2023/11/14 17:42:03;;;;;;;;;;;9.00;99.90;;;;;;21032909;28;20385;-82
2023/11/14 17:52:04;;;;;;;;;;;8.90;99.90;;;;;;21035329;28;19956;-82
2023/11/14 18:02:05;;;;;;;;;;;8.80;99.90;;;;;;21069028;28;19920;-85
2023/11/14 18:12:06;;;;;;;;;;;8.90;99.90;;;;;;21070913;28;19912;-82
2023/11/14 18:22:07;;;;;;;;;;;9.00;99.90;;;;;;21086274;28;19923;-85
2023/11/14 18:32:08;;;;;;;;;;;9.10;99.90;;;;;;21081293;28;19911;-84
2023/11/14 18:42:09;;;;;;;;;;;9.10;99.90;;;;;;21050367;28;19963;-85
2023/11/14 18:52:09;;;;;;;;;;;9.10;99.90;;;;;;21063273;28;19935;-85
2023/11/14 19:02:10;;;;;;;;;;;9.00;99.90;;;;;;21144495;28;19938;-84
2023/11/14 19:12:11;;;;;;;;;;;9.00;99.90;;;;;;21050229;28;19912;-85
2023/11/14 19:22:11;;;;;;;;;;;9.40;99.90;;;;;;21065305;28;20902;-85
2023/11/14 19:32:12;;;;;;;;;;;10.30;99.90;;;;;;21063048;28;19920;-84
2023/11/14 19:42:17;;;;;;;;;;;11.10;99.90;;;;;;21061857;28;19962;-84
2023/11/14 19:52:18;;;;;;;;;;;11.60;99.90;;;;;;21095164;28;19912;-82
2023/11/14 20:02:19;;;;;;;;;;;11.80;99.90;;;;;;21075854;28;19923;-83
2023/11/14 20:12:20;;;;;;;;;;;12.00;99.90;;;;;;21069422;28;19916;-81
2023/11/14 20:22:24;;;;;;;;;;;12.30;99.90;;;;;;21088992;28;19962;-81
2023/11/14 20:32:24;;;;;;;;;;;12.30;99.90;;;;;;21071866;28;19912;-81
2023/11/14 20:42:25;;;;;;;;;;;12.20;99.90;;;;;;21029135;28;19941;-82
2023/11/14 20:52:26;;;;;;;;;;;12.30;99.90;;;;;;21053753;28;20011;-82
2023/11/14 21:02:26;;;;;;;;;;;12.10;99.90;;;;;;21062544;28;19917;-83
2023/11/14 21:12:27;;;;;;;;;;;11.50;99.90;;;;;;21085629;28;19938;-81
2023/11/14 21:22:28;;;;;;;;;;;11.10;99.90;;;;;;21070299;28;19923;-81
2023/11/14 21:32:30;;;;;;;;;;;10.70;99.90;;;;;;21083714;28;19947;-82
2023/11/14 21:42:31;;;;;;;;;;;10.30;99.90;;;;;;21085584;28;19916;-81
2023/11/14 21:52:31;;;;;;;;;;;10.10;99.90;;;;;;21085022;28;20008;-81
2023/11/14 22:02:33;;;;;;;;;;;9.90;99.90;;;;;;21042957;28;19920;-85
2023/11/14 22:12:34;;;;;;;;;;;9.90;99.90;;;;;;21044906;28;19912;-83
2023/11/14 22:22:35;;;;;;;;;;;9.90;99.90;;;;;;21087573;28;19923;-83
2023/11/14 22:32:36;;;;;;;;;;;10.00;99.90;;;;;;21075973;28;19948;-86
2023/11/14 22:42:39;;;;;;;;;;;10.10;99.90;;;;;;21082676;28;19916;-83
2023/11/14 22:52:40;;;;;;;;;;;10.20;99.90;;;;;;21088383;28;19912;-84
2023/11/14 23:02:41;;;;;;;;;;;10.20;99.90;;;;;;21079121;28;19969;-83
2023/11/14 23:12:42;;;;;;;;;;;10.40;99.90;;;;;;21095656;28;20007;-81
2023/11/14 23:22:43;;;;;;;;;;;10.50;99.90;;;;;;21094353;28;19942;-82
2023/11/14 23:32:44;;;;;;;;;;;10.60;99.90;;;;;;21072924;28;19916;-82
2023/11/14 23:42:49;;;;;;;;;;;10.60;99.90;;;;;;21090449;28;19916;-84
2023/11/14 23:52:50;;;;;;;;;;;10.60;99.90;;;;;;21075973;28;20008;-84
